sensor_id;sensor_type;location;lat;lon;timestamp;pressure;altitude;pressure_sealevel;temperature;humidity
64551;BME280;50945;44.472;-123.352;2023-03-20T00:01:18;99247.72;;;9.38;95.02
64551;BME280;50945;44.472;-123.352;2023-03-20T00:03:44;99253.16;;;9.38;94.51
64551;BME280;50945;44.472;-123.352;2023-03-20T00:06:17;99238.25;;;9.33;94.52
64551;BME280;50945;44.472;-123.352;2023-03-20T00:08:45;99247.47;;;9.32;94.42
64551;BME280;50945;44.472;-123.352;2023-03-20T00:11:26;99234.91;;;9.31;94.59
64551;BME280;50945;44.472;-123.352;2023-03-20T00:14:06;99235.09;;;9.30;94.60
64551;BME280;50945;44.472;-123.352;2023-03-20T00:16:39;99235.50;;;9.27;94.35
64551;BME280;50945;44.472;-123.352;2023-03-20T00:19:09;99234.88;;;9.25;94.41
64551;BME280;50945;44.472;-123.352;2023-03-20T00:21:39;99228.97;;;9.21;94.68
64551;BME280;50945;44.472;-123.352;2023-03-20T00:24:06;99231.91;;;9.20;95.21
64551;BME280;50945;44.472;-123.352;2023-03-20T00:26:34;99222.91;;;9.19;95.23
64551;BME280;50945;44.472;-123.352;2023-03-20T00:29:01;99228.34;;;9.19;95.27
64551;BME280;50945;44.472;-123.352;2023-03-20T00:31:31;99224.78;;;9.19;95.48
64551;BME280;50945;44.472;-123.352;2023-03-20T00:34:00;99218.47;;;9.18;96.00
64551;BME280;50945;44.472;-123.352;2023-03-20T00:36:27;99207.56;;;9.18;96.22
64551;BME280;50945;44.472;-123.352;2023-03-20T00:38:54;99208.63;;;9.17;95.98
64551;BME280;50945;44.472;-123.352;2023-03-20T00:41:25;99208.00;;;9.15;95.87
64551;BME280;50945;44.472;-123.352;2023-03-20T00:47:04;99194.75;;;9.12;96.44
64551;BME280;50945;44.472;-123.352;2023-03-20T00:49:33;99197.69;;;9.10;96.26
64551;BME280;50945;44.472;-123.352;2023-03-20T00:52:02;99189.91;;;9.07;96.38
64551;BME280;50945;44.472;-123.352;2023-03-20T00:54:31;99178.16;;;9.07;96.12
64551;BME280;50945;44.472;-123.352;2023-03-20T00:59:33;99184.66;;;9.06;96.77
64551;BME280;50945;44.472;-123.352;2023-03-20T01:02:01;99184.22;;;9.02;99.31
64551;BME280;50945;44.472;-123.352;2023-03-20T01:04:34;99182.94;;;8.98;96.86
64551;BME280;50945;44.472;-123.352;2023-03-20T01:07:04;99173.31;;;8.96;96.68
64551;BME280;50945;44.472;-123.352;2023-03-20T01:09:31;99177.91;;;8.95;96.53
64551;BME280;50945;44.472;-123.352;2023-03-20T01:12:02;99186.28;;;8.93;96.68
64551;BME280;50945;44.472;-123.352;2023-03-20T01:14:28;99183.56;;;8.93;96.68
64551;BME280;50945;44.472;-123.352;2023-03-20T01:16:54;99177.66;;;8.90;96.41
64551;BME280;50945;44.472;-123.352;2023-03-20T01:19:24;99170.75;;;8.87;96.33
64551;BME280;50945;44.472;-123.352;2023-03-20T01:21:58;99167.38;;;8.85;96.92
64551;BME280;50945;44.472;-123.352;2023-03-20T01:24:24;99173.25;;;8.82;96.59
64551;BME280;50945;44.472;-123.352;2023-03-20T01:26:50;99160.25;;;8.78;96.68
64551;BME280;50945;44.472;-123.352;2023-03-20T01:29:23;99165.88;;;8.76;96.40
64551;BME280;50945;44.472;-123.352;2023-03-20T01:31:51;99155.19;;;8.74;96.97
64551;BME280;50945;44.472;-123.352;2023-03-20T01:34:18;99162.91;;;8.71;96.86
64551;BME280;50945;44.472;-123.352;2023-03-20T01:36:56;99159.13;;;8.72;97.15
64551;BME280;50945;44.472;-123.352;2023-03-20T01:39:31;99163.34;;;8.74;97.53
64551;BME280;50945;44.472;-123.352;2023-03-20T01:41:59;99159.38;;;8.77;96.92
64551;BME280;50945;44.472;-123.352;2023-03-20T01:44:31;99159.63;;;8.82;96.64
64551;BME280;50945;44.472;-123.352;2023-03-20T01:47:00;99148.13;;;8.87;96.67
64551;BME280;50945;44.472;-123.352;2023-03-20T01:51:54;99152.94;;;8.85;96.49
64551;BME280;50945;44.472;-123.352;2023-03-20T01:54:36;99151.00;;;8.79;97.73
64551;BME280;50945;44.472;-123.352;2023-03-20T01:57:11;99150.56;;;8.75;97.05
64551;BME280;50945;44.472;-123.352;2023-03-20T01:59:44;99150.13;;;8.71;97.68
64551;BME280;50945;44.472;-123.352;2023-03-20T02:02:20;99150.53;;;8.68;97.74
64551;BME280;50945;44.472;-123.352;2023-03-20T02:04:51;99148.22;;;8.65;98.35
64551;BME280;50945;44.472;-123.352;2023-03-20T02:07:20;99145.69;;;8.64;98.19
64551;BME280;50945;44.472;-123.352;2023-03-20T02:09:51;99146.72;;;8.63;98.25
64551;BME280;50945;44.472;-123.352;2023-03-20T02:12:20;99143.38;;;8.61;98.73
64551;BME280;50945;44.472;-123.352;2023-03-20T02:14:47;99146.28;;;8.59;98.76
64551;BME280;50945;44.472;-123.352;2023-03-20T02:17:14;99148.19;;;8.59;98.79
64551;BME280;50945;44.472;-123.352;2023-03-20T02:19:57;99141.69;;;8.60;99.09
64551;BME280;50945;44.472;-123.352;2023-03-20T02:56:31;99173.03;;;8.21;100.00
64551;BME280;50945;44.472;-123.352;2023-03-20T03:01:50;99173.47;;;8.24;100.00
64551;BME280;50945;44.472;-123.352;2023-03-20T03:04:25;99174.53;;;8.23;100.00
64551;BME280;50945;44.472;-123.352;2023-03-20T03:06:54;99175.38;;;8.24;100.00
64551;BME280;50945;44.472;-123.352;2023-03-20T03:09:33;99176.19;;;8.24;100.00
64551;BME280;50945;44.472;-123.352;2023-03-20T03:15:23;99178.53;;;8.27;100.00
64551;BME280;50945;44.472;-123.352;2023-03-20T03:17:51;99172.25;;;8.27;100.00
64551;BME280;50945;44.472;-123.352;2023-03-20T03:20:35;99174.78;;;8.28;100.00
64551;BME280;50945;44.472;-123.352;2023-03-20T03:23:04;99177.50;;;8.28;100.00
64551;BME280;50945;44.472;-123.352;2023-03-20T03:25:37;99169.53;;;8.27;100.00
64551;BME280;50945;44.472;-123.352;2023-03-20T03:28:06;99183.34;;;8.25;100.00
64551;BME280;50945;44.472;-123.352;2023-03-20T03:30:36;99176.19;;;8.24;100.00
64551;BME280;50945;44.472;-123.352;2023-03-20T03:35:40;99177.00;;;8.18;100.00
64551;BME280;50945;44.472;-123.352;2023-03-20T03:38:23;99179.09;;;8.16;100.00
64551;BME280;50945;44.472;-123.352;2023-03-20T03:46:52;99165.66;;;8.14;100.00
64551;BME280;50945;44.472;-123.352;2023-03-20T03:49:23;99174.66;;;8.15;100.00
64551;BME280;50945;44.472;-123.352;2023-03-20T03:52:00;99173.00;;;8.14;100.00
64551;BME280;50945;44.472;-123.352;2023-03-20T03:54:38;99172.56;;;8.10;100.00
64551;BME280;50945;44.472;-123.352;2023-03-20T03:57:07;99173.59;;;8.09;100.00
64551;BME280;50945;44.472;-123.352;2023-03-20T03:59:40;99170.03;;;8.09;100.00
64551;BME280;50945;44.472;-123.352;2023-03-20T04:02:08;99180.06;;;8.08;100.00
64551;BME280;50945;44.472;-123.352;2023-03-20T04:04:37;99178.19;;;8.09;100.00
64551;BME280;50945;44.472;-123.352;2023-03-20T04:07:07;99173.59;;;8.09;100.00
64551;BME280;50945;44.472;-123.352;2023-03-20T04:09:33;99176.94;;;8.11;100.00
64551;BME280;50945;44.472;-123.352;2023-03-20T04:11:59;99171.50;;;8.11;100.00
64551;BME280;50945;44.472;-123.352;2023-03-20T04:14:26;99173.59;;;8.09;100.00
64551;BME280;50945;44.472;-123.352;2023-03-20T04:16:52;99176.50;;;8.08;100.00
64551;BME280;50945;44.472;-123.352;2023-03-20T04:19:21;99173.13;;;8.06;100.00
64551;BME280;50945;44.472;-123.352;2023-03-20T04:21:47;99176.69;;;8.06;100.00
64551;BME280;50945;44.472;-123.352;2023-03-20T04:24:14;99182.13;;;8.06;100.00
64551;BME280;50945;44.472;-123.352;2023-03-20T04:26:41;99182.13;;;8.06;100.00
64551;BME280;50945;44.472;-123.352;2023-03-20T04:29:07;99181.31;;;8.06;100.00
64551;BME280;50945;44.472;-123.352;2023-03-20T04:31:34;99180.84;;;8.02;100.00
64551;BME280;50945;44.472;-123.352;2023-03-20T04:34:00;99175.59;;;8.00;100.00
64551;BME280;50945;44.472;-123.352;2023-03-20T04:36:27;99171.41;;;7.98;100.00
64551;BME280;50945;44.472;-123.352;2023-03-20T04:38:53;99172.63;;;7.95;100.00
64551;BME280;50945;44.472;-123.352;2023-03-20T04:41:19;99171.16;;;7.93;100.00
64551;BME280;50945;44.472;-123.352;2023-03-20T04:43:46;99165.28;;;7.89;100.00
64551;BME280;50945;44.472;-123.352;2023-03-20T04:46:12;99173.81;;;7.86;100.00
64551;BME280;50945;44.472;-123.352;2023-03-20T04:48:38;99174.84;;;7.85;100.00
64551;BME280;50945;44.472;-123.352;2023-03-20T04:51:05;99171.66;;;7.81;100.00
64551;BME280;50945;44.472;-123.352;2023-03-20T04:53:31;99173.28;;;7.76;100.00
64551;BME280;50945;44.472;-123.352;2023-03-20T04:55:58;99171.00;;;7.73;100.00
64551;BME280;50945;44.472;-123.352;2023-03-20T04:58:24;99161.13;;;7.72;100.00
64551;BME280;50945;44.472;-123.352;2023-03-20T05:00:50;99166.56;;;7.72;100.00
64551;BME280;50945;44.472;-123.352;2023-03-20T05:03:17;99160.31;;;7.71;100.00
64551;BME280;50945;44.472;-123.352;2023-03-20T05:05:43;99161.13;;;7.72;100.00
64551;BME280;50945;44.472;-123.352;2023-03-20T05:08:09;99167.41;;;7.72;100.00
64551;BME280;50945;44.472;-123.352;2023-03-20T05:10:35;99160.31;;;7.71;100.00
64551;BME280;50945;44.472;-123.352;2023-03-20T05:13:02;99177.47;;;7.72;100.00
64551;BME280;50945;44.472;-123.352;2023-03-20T05:15:29;99172.22;;;7.70;100.00
64551;BME280;50945;44.472;-123.352;2023-03-20T05:17:55;99171.56;;;7.68;100.00
64551;BME280;50945;44.472;-123.352;2023-03-20T05:20:21;99169.22;;;7.65;100.00
64551;BME280;50945;44.472;-123.352;2023-03-20T05:22:49;99174.03;;;7.63;100.00
64551;BME280;50945;44.472;-123.352;2023-03-20T05:25:15;99171.50;;;7.61;100.00
64551;BME280;50945;44.472;-123.352;2023-03-20T05:27:44;99176.28;;;7.59;100.00
64551;BME280;50945;44.472;-123.352;2023-03-20T05:30:12;99176.47;;;7.58;100.00
64551;BME280;50945;44.472;-123.352;2023-03-20T05:32:38;99183.16;;;7.55;100.00
64551;BME280;50945;44.472;-123.352;2023-03-20T05:35:06;99176.03;;;7.54;100.00
64551;BME280;50945;44.472;-123.352;2023-03-20T05:37:33;99177.09;;;7.53;100.00
64551;BME280;50945;44.472;-123.352;2023-03-20T05:40:00;99184.38;;;7.53;100.00
64551;BME280;50945;44.472;-123.352;2023-03-20T05:42:26;99178.09;;;7.52;100.00
64551;BME280;50945;44.472;-123.352;2023-03-20T05:44:54;99187.97;;;7.53;100.00
64551;BME280;50945;44.472;-123.352;2023-03-20T05:47:20;99180.44;;;7.55;100.00
64551;BME280;50945;44.472;-123.352;2023-03-20T05:49:46;99191.97;;;7.57;100.00
64551;BME280;50945;44.472;-123.352;2023-03-20T05:52:12;99189.25;;;7.57;100.00
64551;BME280;50945;44.472;-123.352;2023-03-20T05:54:39;99184.63;;;7.58;100.00
64551;BME280;50945;44.472;-123.352;2023-03-20T05:57:05;99178.19;;;7.59;100.00
64551;BME280;50945;44.472;-123.352;2023-03-20T05:59:32;99179.00;;;7.59;100.00
64551;BME280;50945;44.472;-123.352;2023-03-20T06:01:58;99182.38;;;7.61;100.00
64551;BME280;50945;44.472;-123.352;2023-03-20T06:04:24;99179.66;;;7.61;100.00
64551;BME280;50945;44.472;-123.352;2023-03-20T06:06:50;99183.00;;;7.64;100.00
64551;BME280;50945;44.472;-123.352;2023-03-20T06:09:16;99181.34;;;7.63;100.00
64551;BME280;50945;44.472;-123.352;2023-03-20T06:11:43;99180.28;;;7.64;100.00
64551;BME280;50945;44.472;-123.352;2023-03-20T06:14:10;99177.56;;;7.64;100.00
64551;BME280;50945;44.472;-123.352;2023-03-20T06:16:36;99187.44;;;7.65;100.00
64551;BME280;50945;44.472;-123.352;2023-03-20T06:19:02;99183.00;;;7.64;100.00
64551;BME280;50945;44.472;-123.352;2023-03-20T06:21:29;99192.03;;;7.64;100.00
64551;BME280;50945;44.472;-123.352;2023-03-20T06:23:55;99191.19;;;7.64;100.00
64551;BME280;50945;44.472;-123.352;2023-03-20T06:26:22;99192.03;;;7.64;100.00
64551;BME280;50945;44.472;-123.352;2023-03-20T06:28:48;99192.03;;;7.64;100.00
64551;BME280;50945;44.472;-123.352;2023-03-20T06:31:15;99192.22;;;7.63;100.00
64551;BME280;50945;44.472;-123.352;2023-03-20T06:33:41;99191.38;;;7.62;100.00
64551;BME280;50945;44.472;-123.352;2023-03-20T06:36:08;99191.38;;;7.62;100.00
64551;BME280;50945;44.472;-123.352;2023-03-20T06:38:34;99192.41;;;7.61;100.00
64551;BME280;50945;44.472;-123.352;2023-03-20T06:41:01;99201.59;;;7.60;100.00
64551;BME280;50945;44.472;-123.352;2023-03-20T06:43:27;99199.75;;;7.60;100.00
64551;BME280;50945;44.472;-123.352;2023-03-20T06:45:55;99205.19;;;7.60;100.00
64551;BME280;50945;44.472;-123.352;2023-03-20T06:48:21;99203.50;;;7.59;100.00
64551;BME280;50945;44.472;-123.352;2023-03-20T06:50:51;99208.09;;;7.59;100.00
64551;BME280;50945;44.472;-123.352;2023-03-20T06:53:17;99204.31;;;7.60;100.00
64551;BME280;50945;44.472;-123.352;2023-03-20T06:55:48;99200.78;;;7.59;100.00
64551;BME280;50945;44.472;-123.352;2023-03-20T06:58:15;99205.56;;;7.57;100.00
64551;BME280;50945;44.472;-123.352;2023-03-20T07:00:41;99203.03;;;7.56;100.00
64551;BME280;50945;44.472;-123.352;2023-03-20T07:03:07;99211.38;;;7.54;100.00
64551;BME280;50945;44.472;-123.352;2023-03-20T07:05:34;99205.28;;;7.52;100.00
64551;BME280;50945;44.472;-123.352;2023-03-20T07:08:00;99202.38;;;7.54;100.00
64551;BME280;50945;44.472;-123.352;2023-03-20T07:10:26;99210.56;;;7.54;100.00
64551;BME280;50945;44.472;-123.352;2023-03-20T07:12:53;99206.78;;;7.55;100.00
64551;BME280;50945;44.472;-123.352;2023-03-20T07:15:21;99209.50;;;7.55;100.00
64551;BME280;50945;44.472;-123.352;2023-03-20T07:17:47;99204.06;;;7.55;100.00
64551;BME280;50945;44.472;-123.352;2023-03-20T07:20:13;99206.78;;;7.55;100.00
64551;BME280;50945;44.472;-123.352;2023-03-20T07:22:40;99209.50;;;7.55;100.00
64551;BME280;50945;44.472;-123.352;2023-03-20T07:25:08;99205.09;;;7.54;100.00
64551;BME280;50945;44.472;-123.352;2023-03-20T07:27:34;99210.34;;;7.55;100.00
64551;BME280;50945;44.472;-123.352;2023-03-20T07:30:01;99210.16;;;7.57;100.00
64551;BME280;50945;44.472;-123.352;2023-03-20T07:32:28;99213.91;;;7.56;100.00
64551;BME280;50945;44.472;-123.352;2023-03-20T07:34:54;99207.63;;;7.55;100.00
64551;BME280;50945;44.472;-123.352;2023-03-20T07:37:20;99217.66;;;7.55;100.00
64551;BME280;50945;44.472;-123.352;2023-03-20T07:39:46;99214.09;;;7.54;100.00
64551;BME280;50945;44.472;-123.352;2023-03-20T07:42:12;99220.38;;;7.55;100.00
64551;BME280;50945;44.472;-123.352;2023-03-20T07:44:39;99223.09;;;7.55;100.00
64551;BME280;50945;44.472;-123.352;2023-03-20T07:47:05;99216.00;;;7.54;100.00
64551;BME280;50945;44.472;-123.352;2023-03-20T07:49:32;99219.72;;;7.53;100.00
64551;BME280;50945;44.472;-123.352;2023-03-20T07:51:58;99218.25;;;7.50;100.00
64551;BME280;50945;44.472;-123.352;2023-03-20T07:54:24;99217.59;;;7.48;100.00
64551;BME280;50945;44.472;-123.352;2023-03-20T07:56:51;99216.97;;;7.46;100.00
64551;BME280;50945;44.472;-123.352;2023-03-20T07:59:17;99223.59;;;7.43;100.00
64551;BME280;50945;44.472;-123.352;2023-03-20T08:01:44;99210.38;;;7.40;100.00
64551;BME280;50945;44.472;-123.352;2023-03-20T08:04:10;99216.88;;;7.39;100.00
64551;BME280;50945;44.472;-123.352;2023-03-20T08:06:37;99205.34;;;7.37;100.00
64551;BME280;50945;44.472;-123.352;2023-03-20T08:09:06;99199.06;;;7.37;100.00
64551;BME280;50945;44.472;-123.352;2023-03-20T08:11:32;99200.94;;;7.36;100.00
64551;BME280;50945;44.472;-123.352;2023-03-20T08:13:58;99213.06;;;7.34;100.00
64551;BME280;50945;44.472;-123.352;2023-03-20T08:16:25;99217.63;;;7.33;100.00
64551;BME280;50945;44.472;-123.352;2023-03-20T08:18:51;99210.53;;;7.32;100.00
64551;BME280;50945;44.472;-123.352;2023-03-20T08:21:18;99216.34;;;7.29;100.00
64551;BME280;50945;44.472;-123.352;2023-03-20T08:23:44;99218.41;;;7.27;100.00
64551;BME280;50945;44.472;-123.352;2023-03-20T08:26:10;99219.63;;;7.24;100.00
64551;BME280;50945;44.472;-123.352;2023-03-20T08:28:37;99228.81;;;7.23;100.00
64551;BME280;50945;44.472;-123.352;2023-03-20T08:31:08;99218.78;;;7.24;100.00
64551;BME280;50945;44.472;-123.352;2023-03-20T08:33:34;99224.41;;;7.22;100.00
64551;BME280;50945;44.472;-123.352;2023-03-20T08:36:00;99224.59;;;7.21;100.00
64551;BME280;50945;44.472;-123.352;2023-03-20T08:38:27;99222.94;;;7.20;100.00
64551;BME280;50945;44.472;-123.352;2023-03-20T08:40:53;99230.22;;;7.19;100.00
64551;BME280;50945;44.472;-123.352;2023-03-20T08:43:19;99229.38;;;7.19;100.00
64551;BME280;50945;44.472;-123.352;2023-03-20T08:45:46;99222.28;;;7.18;100.00
64551;BME280;50945;44.472;-123.352;2023-03-20T08:48:14;99221.41;;;7.17;100.00
64551;BME280;50945;44.472;-123.352;2023-03-20T08:50:41;99215.16;;;7.17;100.00
64551;BME280;50945;44.472;-123.352;2023-03-20T08:53:07;99213.66;;;7.14;100.00
64551;BME280;50945;44.472;-123.352;2023-03-20T08:55:33;99223.03;;;7.12;100.00
64551;BME280;50945;44.472;-123.352;2023-03-20T08:57:59;99220.69;;;7.09;100.00
64551;BME280;50945;44.472;-123.352;2023-03-20T09:00:26;99226.50;;;7.06;100.00
64551;BME280;50945;44.472;-123.352;2023-03-20T09:02:52;99228.78;;;7.02;100.00
64551;BME280;50945;44.472;-123.352;2023-03-20T09:05:18;99229.31;;;6.97;100.00
64551;BME280;50945;44.472;-123.352;2023-03-20T09:07:45;99236.00;;;6.95;100.00
64551;BME280;50945;44.472;-123.352;2023-03-20T09:10:11;99238.44;;;6.90;100.00
64551;BME280;50945;44.472;-123.352;2023-03-20T09:12:38;99245.25;;;6.85;100.00
64551;BME280;50945;44.472;-123.352;2023-03-20T09:15:05;99254.81;;;6.81;100.00
64551;BME280;50945;44.472;-123.352;2023-03-20T09:17:31;99253.13;;;6.80;100.00
64551;BME280;50945;44.472;-123.352;2023-03-20T09:19:57;99259.59;;;6.79;100.00
64551;BME280;50945;44.472;-123.352;2023-03-20T09:22:24;99253.50;;;6.77;100.00
64551;BME280;50945;44.472;-123.352;2023-03-20T09:24:50;99257.25;;;6.76;100.00
64551;BME280;50945;44.472;-123.352;2023-03-20T09:27:17;99258.94;;;6.77;100.00
64551;BME280;50945;44.472;-123.352;2023-03-20T09:29:43;99260.78;;;6.77;100.00
64551;BME280;50945;44.472;-123.352;2023-03-20T09:32:13;99262.69;;;6.76;100.00
64551;BME280;50945;44.472;-123.352;2023-03-20T09:34:40;99262.84;;;6.75;100.00
64551;BME280;50945;44.472;-123.352;2023-03-20T09:37:06;99266.44;;;6.75;100.00
64551;BME280;50945;44.472;-123.352;2023-03-20T09:39:33;99270.81;;;6.76;100.00
64551;BME280;50945;44.472;-123.352;2023-03-20T09:42:21;99269.34;;;6.74;100.00
64551;BME280;50945;44.472;-123.352;2023-03-20T09:45:17;99264.91;;;6.73;100.00
64551;BME280;50945;44.472;-123.352;2023-03-20T09:53:29;99269.78;;;6.62;100.00
64551;BME280;50945;44.472;-123.352;2023-03-20T09:55:58;99273.91;;;6.58;100.00
64551;BME280;50945;44.472;-123.352;2023-03-20T09:58:34;99278.19;;;6.53;100.00
64551;BME280;50945;44.472;-123.352;2023-03-20T10:01:03;99277.91;;;6.47;100.00
64551;BME280;50945;44.472;-123.352;2023-03-20T10:06:46;99282.75;;;6.37;100.00
64551;BME280;50945;44.472;-123.352;2023-03-20T10:09:21;99284.81;;;6.35;100.00
64551;BME280;50945;44.472;-123.352;2023-03-20T10:12:06;99279.75;;;6.32;100.00
64551;BME280;50945;44.472;-123.352;2023-03-20T10:19:55;99294.41;;;6.23;99.56
64551;BME280;50945;44.472;-123.352;2023-03-20T10:22:30;99292.44;;;6.17;99.41
64551;BME280;50945;44.472;-123.352;2023-03-20T10:28:12;99292.84;;;6.05;99.54
64551;BME280;50945;44.472;-123.352;2023-03-20T10:30:56;99297.97;;;6.00;99.47
64551;BME280;50945;44.472;-123.352;2023-03-20T10:33:50;99298.53;;;5.96;99.70
64551;BME280;50945;44.472;-123.352;2023-03-20T10:41:36;99287.22;;;5.84;99.61
64551;BME280;50945;44.472;-123.352;2023-03-20T10:44:05;99291.16;;;5.81;99.72
64551;BME280;50945;44.472;-123.352;2023-03-20T10:46:41;99305.06;;;5.78;99.88
64551;BME280;50945;44.472;-123.352;2023-03-20T10:52:04;99303.91;;;5.72;99.74
64551;BME280;50945;44.472;-123.352;2023-03-20T10:54:38;99314.09;;;5.70;99.88
64551;BME280;50945;44.472;-123.352;2023-03-20T10:57:12;99318.66;;;5.70;99.95
64551;BME280;50945;44.472;-123.352;2023-03-20T10:59:54;99316.13;;;5.68;100.00
64551;BME280;50945;44.472;-123.352;2023-03-20T11:02:26;99324.25;;;5.68;99.95
64551;BME280;50945;44.472;-123.352;2023-03-20T11:04:53;99319.88;;;5.67;99.96
64551;BME280;50945;44.472;-123.352;2023-03-20T11:07:25;99324.47;;;5.67;99.80
64551;BME280;50945;44.472;-123.352;2023-03-20T11:12:32;99323.97;;;5.63;99.46
64551;BME280;50945;44.472;-123.352;2023-03-20T11:15:04;99334.63;;;5.65;99.42
64551;BME280;50945;44.472;-123.352;2023-03-20T11:17:39;99336.31;;;5.66;99.19
64551;BME280;50945;44.472;-123.352;2023-03-20T11:20:05;99332.78;;;5.65;99.12
64551;BME280;50945;44.472;-123.352;2023-03-20T11:22:32;99336.31;;;5.66;99.01
64551;BME280;50945;44.472;-123.352;2023-03-20T11:25:00;99330.06;;;5.65;99.03
64551;BME280;50945;44.472;-123.352;2023-03-20T11:27:29;99345.47;;;5.65;99.03
64551;BME280;50945;44.472;-123.352;2023-03-20T11:29:57;99345.66;;;5.63;98.89
64551;BME280;50945;44.472;-123.352;2023-03-20T11:32:39;99346.69;;;5.62;98.87
64551;BME280;50945;44.472;-123.352;2023-03-20T11:35:29;99353.31;;;5.60;98.94
64551;BME280;50945;44.472;-123.352;2023-03-20T11:38:15;99349.91;;;5.58;98.98
64551;BME280;50945;44.472;-123.352;2023-03-20T11:40:42;99349.41;;;5.54;98.47
64551;BME280;50945;44.472;-123.352;2023-03-20T11:43:10;99356.41;;;5.48;98.41
64551;BME280;50945;44.472;-123.352;2023-03-20T11:45:41;99352.69;;;5.41;98.72
64551;BME280;50945;44.472;-123.352;2023-03-20T11:48:20;99359.50;;;5.37;98.90
64551;BME280;50945;44.472;-123.352;2023-03-20T11:53:24;99359.00;;;5.33;99.64
64551;BME280;50945;44.472;-123.352;2023-03-20T11:56:04;99360.88;;;5.33;99.56
64551;BME280;50945;44.472;-123.352;2023-03-20T11:58:31;99370.69;;;5.34;99.09
64551;BME280;50945;44.472;-123.352;2023-03-20T12:01:00;99370.03;;;5.32;98.92
64551;BME280;50945;44.472;-123.352;2023-03-20T12:04:05;99371.22;;;5.29;98.95
64551;BME280;50945;44.472;-123.352;2023-03-20T12:06:43;99374.94;;;5.28;99.07
64551;BME280;50945;44.472;-123.352;2023-03-20T12:09:43;99375.94;;;5.27;99.09
64551;BME280;50945;44.472;-123.352;2023-03-20T12:15:23;99379.53;;;5.28;99.01
64551;BME280;50945;44.472;-123.352;2023-03-20T12:18:02;99374.44;;;5.25;99.11
64551;BME280;50945;44.472;-123.352;2023-03-20T12:20:31;99381.91;;;5.23;99.20
64551;BME280;50945;44.472;-123.352;2023-03-20T12:26:21;99384.81;;;5.13;100.00
64551;BME280;50945;44.472;-123.352;2023-03-20T12:31:54;99394.47;;;5.07;100.00
64551;BME280;50945;44.472;-123.352;2023-03-20T12:34:35;99406.34;;;5.06;100.00
64551;BME280;50945;44.472;-123.352;2023-03-20T12:37:03;99410.88;;;5.06;100.00
64551;BME280;50945;44.472;-123.352;2023-03-20T12:39:36;99403.63;;;5.06;100.00
64551;BME280;50945;44.472;-123.352;2023-03-20T12:50:35;99417.97;;;5.15;100.00
64551;BME280;50945;44.472;-123.352;2023-03-20T12:58:39;99424.94;;;5.18;100.00
64551;BME280;50945;44.472;-123.352;2023-03-20T13:01:20;99429.31;;;5.19;100.00
64551;BME280;50945;44.472;-123.352;2023-03-20T13:15:02;99438.97;;;5.21;100.00
64551;BME280;50945;44.472;-123.352;2023-03-20T13:20:25;99437.94;;;5.22;100.00
64551;BME280;50945;44.472;-123.352;2023-03-20T13:34:43;99449.81;;;5.21;100.00
64551;BME280;50945;44.472;-123.352;2023-03-20T13:42:20;99451.84;;;5.19;100.00
64551;BME280;50945;44.472;-123.352;2023-03-20T13:44:49;99451.84;;;5.19;100.00
64551;BME280;50945;44.472;-123.352;2023-03-20T13:47:26;99454.75;;;5.18;100.00
64551;BME280;50945;44.472;-123.352;2023-03-20T13:52:27;99454.91;;;5.16;100.00
64551;BME280;50945;44.472;-123.352;2023-03-20T13:57:44;99449.31;;;5.18;100.00
64551;BME280;50945;44.472;-123.352;2023-03-20T14:03:12;99455.91;;;5.15;100.00
64551;BME280;50945;44.472;-123.352;2023-03-20T14:05:41;99457.78;;;5.14;100.00
64551;BME280;50945;44.472;-123.352;2023-03-20T14:11:10;99469.28;;;5.17;100.00
64551;BME280;50945;44.472;-123.352;2023-03-20T14:13:41;99477.25;;;5.18;100.00
64551;BME280;50945;44.472;-123.352;2023-03-20T14:16:10;99478.09;;;5.19;100.00
64551;BME280;50945;44.472;-123.352;2023-03-20T14:18:40;99483.50;;;5.19;100.00
64551;BME280;50945;44.472;-123.352;2023-03-20T14:21:17;99473.53;;;5.19;100.00
64551;BME280;50945;44.472;-123.352;2023-03-20T14:23:48;99490.63;;;5.20;100.00
64551;BME280;50945;44.472;-123.352;2023-03-20T14:31:39;99494.53;;;5.17;100.00
64551;BME280;50945;44.472;-123.352;2023-03-20T14:34:25;99499.09;;;5.17;100.00
64551;BME280;50945;44.472;-123.352;2023-03-20T14:36:56;99507.22;;;5.17;100.00
64551;BME280;50945;44.472;-123.352;2023-03-20T14:39:39;99505.38;;;5.17;100.00
64551;BME280;50945;44.472;-123.352;2023-03-20T14:53:17;99526.72;;;5.12;100.00
64551;BME280;50945;44.472;-123.352;2023-03-20T15:06:51;99546.84;;;5.09;100.00
64551;BME280;50945;44.472;-123.352;2023-03-20T15:09:20;99549.56;;;5.09;100.00
64551;BME280;50945;44.472;-123.352;2023-03-20T15:11:51;99553.13;;;5.10;100.00
64551;BME280;50945;44.472;-123.352;2023-03-20T15:14:26;99553.47;;;5.07;100.00
64551;BME280;50945;44.472;-123.352;2023-03-20T15:16:59;99558.72;;;5.08;100.00
64551;BME280;50945;44.472;-123.352;2023-03-20T15:19:26;99558.88;;;5.07;100.00
64551;BME280;50945;44.472;-123.352;2023-03-20T15:21:53;99553.63;;;5.05;100.00
64551;BME280;50945;44.472;-123.352;2023-03-20T15:24:21;99564.63;;;5.04;100.00
64551;BME280;50945;44.472;-123.352;2023-03-20T15:26:53;99563.63;;;5.05;100.00
64551;BME280;50945;44.472;-123.352;2023-03-20T15:29:21;99567.19;;;5.05;100.00
64551;BME280;50945;44.472;-123.352;2023-03-20T15:31:54;99569.88;;;5.05;100.00
64551;BME280;50945;44.472;-123.352;2023-03-20T15:34:25;99573.44;;;5.06;100.00
64551;BME280;50945;44.472;-123.352;2023-03-20T15:36:58;99578.19;;;5.04;100.00
64551;BME280;50945;44.472;-123.352;2023-03-20T15:39:28;99584.44;;;5.04;100.00
64551;BME280;50945;44.472;-123.352;2023-03-20T15:42:01;99585.97;;;5.07;100.00
64551;BME280;50945;44.472;-123.352;2023-03-20T15:44:35;99586.66;;;5.09;100.00
64551;BME280;50945;44.472;-123.352;2023-03-20T15:47:30;99600.88;;;5.11;100.00